sensor_id;sensor_type;location;lat;lon;timestamp;P1;durP1;ratioP1;P2;durP2;ratioP2
75054;SDS011;63636;44.746;10.488;2022-11-15T00:01:50;47.20;;;20.65;;
75054;SDS011;63636;44.746;10.488;2022-11-15T00:04:34;48.88;;;21.33;;
75054;SDS011;63636;44.746;10.488;2022-11-15T00:07:18;51.15;;;22.15;;
75054;SDS011;63636;44.746;10.488;2022-11-15T00:10:02;54.05;;;22.88;;
75054;SDS011;63636;44.746;10.488;2022-11-15T00:12:47;46.10;;;20.48;;
75054;SDS011;63636;44.746;10.488;2022-11-15T00:15:30;48.47;;;21.38;;
75054;SDS011;63636;44.746;10.488;2022-11-15T00:18:14;49.50;;;22.38;;
75054;SDS011;63636;44.746;10.488;2022-11-15T00:21:06;53.72;;;22.90;;
75054;SDS011;63636;44.746;10.488;2022-11-15T00:23:50;47.70;;;20.52;;
75054;SDS011;63636;44.746;10.488;2022-11-15T00:26:35;48.97;;;21.35;;
75054;SDS011;63636;44.746;10.488;2022-11-15T00:29:19;48.95;;;20.83;;
75054;SDS011;63636;44.746;10.488;2022-11-15T00:32:03;49.05;;;21.17;;
75054;SDS011;63636;44.746;10.488;2022-11-15T00:34:47;52.13;;;22.42;;
75054;SDS011;63636;44.746;10.488;2022-11-15T00:37:31;52.88;;;21.90;;
75054;SDS011;63636;44.746;10.488;2022-11-15T00:40:15;53.20;;;21.88;;
75054;SDS011;63636;44.746;10.488;2022-11-15T00:42:59;50.63;;;21.45;;
75054;SDS011;63636;44.746;10.488;2022-11-15T00:45:43;47.38;;;20.50;;
75054;SDS011;63636;44.746;10.488;2022-11-15T00:48:28;53.40;;;21.30;;
75054;SDS011;63636;44.746;10.488;2022-11-15T00:51:12;48.03;;;21.15;;
75054;SDS011;63636;44.746;10.488;2022-11-15T00:53:56;49.28;;;20.40;;
75054;SDS011;63636;44.746;10.488;2022-11-15T00:56:40;51.60;;;21.92;;
75054;SDS011;63636;44.746;10.488;2022-11-15T00:59:24;47.08;;;20.30;;
75054;SDS011;63636;44.746;10.488;2022-11-15T01:02:08;47.65;;;20.38;;
75054;SDS011;63636;44.746;10.488;2022-11-15T01:04:52;46.80;;;19.58;;
75054;SDS011;63636;44.746;10.488;2022-11-15T01:07:36;48.15;;;19.95;;
75054;SDS011;63636;44.746;10.488;2022-11-15T01:10:21;47.40;;;18.80;;
75054;SDS011;63636;44.746;10.488;2022-11-15T01:13:05;47.88;;;20.42;;
75054;SDS011;63636;44.746;10.488;2022-11-15T01:15:50;45.42;;;19.15;;
75054;SDS011;63636;44.746;10.488;2022-11-15T01:18:33;47.30;;;20.00;;
75054;SDS011;63636;44.746;10.488;2022-11-15T01:21:18;46.40;;;19.73;;
75054;SDS011;63636;44.746;10.488;2022-11-15T01:24:02;46.17;;;19.35;;
75054;SDS011;63636;44.746;10.488;2022-11-15T01:26:46;44.15;;;19.27;;
75054;SDS011;63636;44.746;10.488;2022-11-15T01:29:31;43.17;;;18.33;;
75054;SDS011;63636;44.746;10.488;2022-11-15T01:32:15;42.67;;;18.52;;
75054;SDS011;63636;44.746;10.488;2022-11-15T01:35:00;46.03;;;19.33;;
75054;SDS011;63636;44.746;10.488;2022-11-15T01:37:43;44.03;;;18.30;;
75054;SDS011;63636;44.746;10.488;2022-11-15T01:40:27;40.22;;;17.05;;
75054;SDS011;63636;44.746;10.488;2022-11-15T01:48:49;42.13;;;18.00;;
75054;SDS011;63636;44.746;10.488;2022-11-15T01:51:34;46.55;;;18.42;;
75054;SDS011;63636;44.746;10.488;2022-11-15T01:54:19;46.05;;;18.13;;
75054;SDS011;63636;44.746;10.488;2022-11-15T01:57:06;45.00;;;18.45;;
75054;SDS011;63636;44.746;10.488;2022-11-15T01:59:51;41.50;;;17.48;;
75054;SDS011;63636;44.746;10.488;2022-11-15T02:02:36;42.55;;;17.70;;
75054;SDS011;63636;44.746;10.488;2022-11-15T02:05:21;43.42;;;17.30;;
75054;SDS011;63636;44.746;10.488;2022-11-15T02:08:05;43.75;;;16.67;;
75054;SDS011;63636;44.746;10.488;2022-11-15T02:10:50;41.58;;;17.30;;
75054;SDS011;63636;44.746;10.488;2022-11-15T02:13:34;42.75;;;17.08;;
75054;SDS011;63636;44.746;10.488;2022-11-15T02:30:24;42.60;;;16.45;;
75054;SDS011;63636;44.746;10.488;2022-11-15T02:36:15;41.72;;;17.02;;
75054;SDS011;63636;44.746;10.488;2022-11-15T02:41:51;43.70;;;17.10;;
75054;SDS011;63636;44.746;10.488;2022-11-15T02:44:40;42.60;;;17.60;;
75054;SDS011;63636;44.746;10.488;2022-11-15T02:47:27;43.80;;;16.77;;
75054;SDS011;63636;44.746;10.488;2022-11-15T02:50:13;37.97;;;16.65;;
75054;SDS011;63636;44.746;10.488;2022-11-15T02:52:59;38.15;;;16.48;;
75054;SDS011;63636;44.746;10.488;2022-11-15T02:55:46;39.03;;;16.55;;
75054;SDS011;63636;44.746;10.488;2022-11-15T03:01:54;41.63;;;16.67;;
75054;SDS011;63636;44.746;10.488;2022-11-15T03:04:44;39.22;;;16.58;;
75054;SDS011;63636;44.746;10.488;2022-11-15T03:10:17;42.53;;;17.83;;
75054;SDS011;63636;44.746;10.488;2022-11-15T03:15:52;38.78;;;16.88;;
75054;SDS011;63636;44.746;10.488;2022-11-15T03:18:40;37.25;;;16.27;;
75054;SDS011;63636;44.746;10.488;2022-11-15T03:21:25;40.28;;;17.55;;
75054;SDS011;63636;44.746;10.488;2022-11-15T03:24:11;43.50;;;17.88;;
75054;SDS011;63636;44.746;10.488;2022-11-15T03:26:56;40.05;;;17.42;;
75054;SDS011;63636;44.746;10.488;2022-11-15T03:29:44;38.63;;;16.20;;
75054;SDS011;63636;44.746;10.488;2022-11-15T03:32:30;38.30;;;16.73;;
75054;SDS011;63636;44.746;10.488;2022-11-15T03:35:17;38.78;;;16.30;;
75054;SDS011;63636;44.746;10.488;2022-11-15T03:38:14;39.67;;;16.15;;
75054;SDS011;63636;44.746;10.488;2022-11-15T03:41:01;39.75;;;15.75;;
75054;SDS011;63636;44.746;10.488;2022-11-15T03:43:58;36.50;;;15.82;;
75054;SDS011;63636;44.746;10.488;2022-11-15T03:46:46;36.10;;;15.60;;
75054;SDS011;63636;44.746;10.488;2022-11-15T03:49:33;36.63;;;16.13;;
75054;SDS011;63636;44.746;10.488;2022-11-15T03:52:18;36.78;;;15.77;;
75054;SDS011;63636;44.746;10.488;2022-11-15T03:55:03;37.45;;;15.63;;
75054;SDS011;63636;44.746;10.488;2022-11-15T03:57:48;38.35;;;15.57;;
75054;SDS011;63636;44.746;10.488;2022-11-15T04:00:32;36.30;;;16.65;;
75054;SDS011;63636;44.746;10.488;2022-11-15T04:03:16;38.72;;;16.67;;
75054;SDS011;63636;44.746;10.488;2022-11-15T04:06:01;36.45;;;15.65;;
75054;SDS011;63636;44.746;10.488;2022-11-15T04:08:45;39.65;;;16.23;;
75054;SDS011;63636;44.746;10.488;2022-11-15T04:11:29;40.20;;;16.90;;
75054;SDS011;63636;44.746;10.488;2022-11-15T04:14:14;36.22;;;14.85;;
75054;SDS011;63636;44.746;10.488;2022-11-15T04:16:57;36.40;;;14.90;;
75054;SDS011;63636;44.746;10.488;2022-11-15T04:19:42;36.97;;;15.77;;
75054;SDS011;63636;44.746;10.488;2022-11-15T04:22:44;33.55;;;14.35;;
75054;SDS011;63636;44.746;10.488;2022-11-15T04:25:49;37.17;;;15.68;;
75054;SDS011;63636;44.746;10.488;2022-11-15T04:28:34;35.38;;;15.07;;
75054;SDS011;63636;44.746;10.488;2022-11-15T04:31:18;35.78;;;14.95;;
75054;SDS011;63636;44.746;10.488;2022-11-15T04:34:02;37.03;;;16.27;;
75054;SDS011;63636;44.746;10.488;2022-11-15T04:36:46;36.38;;;15.02;;
75054;SDS011;63636;44.746;10.488;2022-11-15T04:39:49;33.08;;;13.77;;
75054;SDS011;63636;44.746;10.488;2022-11-15T04:42:33;32.10;;;13.63;;
75054;SDS011;63636;44.746;10.488;2022-11-15T04:45:17;32.85;;;14.68;;
75054;SDS011;63636;44.746;10.488;2022-11-15T04:48:01;32.28;;;13.85;;
75054;SDS011;63636;44.746;10.488;2022-11-15T04:50:47;32.60;;;14.00;;
75054;SDS011;63636;44.746;10.488;2022-11-15T04:53:31;35.10;;;14.48;;
75054;SDS011;63636;44.746;10.488;2022-11-15T04:56:15;33.10;;;13.77;;
75054;SDS011;63636;44.746;10.488;2022-11-15T04:59:00;32.63;;;14.27;;
75054;SDS011;63636;44.746;10.488;2022-11-15T05:01:44;30.02;;;13.23;;
75054;SDS011;63636;44.746;10.488;2022-11-15T05:04:28;32.80;;;14.50;;
75054;SDS011;63636;44.746;10.488;2022-11-15T05:07:12;34.22;;;14.13;;
75054;SDS011;63636;44.746;10.488;2022-11-15T05:09:56;33.00;;;14.48;;
75054;SDS011;63636;44.746;10.488;2022-11-15T05:12:40;33.40;;;14.23;;
75054;SDS011;63636;44.746;10.488;2022-11-15T05:15:24;33.55;;;14.23;;
75054;SDS011;63636;44.746;10.488;2022-11-15T05:18:08;35.20;;;14.43;;
75054;SDS011;63636;44.746;10.488;2022-11-15T05:20:52;36.60;;;14.98;;
75054;SDS011;63636;44.746;10.488;2022-11-15T05:23:36;34.47;;;14.57;;
75054;SDS011;63636;44.746;10.488;2022-11-15T05:26:20;36.15;;;14.60;;
75054;SDS011;63636;44.746;10.488;2022-11-15T05:29:04;33.95;;;14.40;;
75054;SDS011;63636;44.746;10.488;2022-11-15T05:31:48;33.33;;;14.82;;
75054;SDS011;63636;44.746;10.488;2022-11-15T05:34:33;34.33;;;15.20;;
75054;SDS011;63636;44.746;10.488;2022-11-15T05:37:17;37.10;;;16.20;;
75054;SDS011;63636;44.746;10.488;2022-11-15T05:40:02;36.92;;;15.30;;
75054;SDS011;63636;44.746;10.488;2022-11-15T05:42:46;33.28;;;14.75;;
75054;SDS011;63636;44.746;10.488;2022-11-15T05:45:31;35.83;;;15.15;;
75054;SDS011;63636;44.746;10.488;2022-11-15T05:48:15;32.88;;;15.30;;
75054;SDS011;63636;44.746;10.488;2022-11-15T05:50:59;37.67;;;15.85;;
75054;SDS011;63636;44.746;10.488;2022-11-15T05:53:45;33.30;;;14.80;;
75054;SDS011;63636;44.746;10.488;2022-11-15T05:56:29;34.25;;;15.25;;
75054;SDS011;63636;44.746;10.488;2022-11-15T05:59:13;35.30;;;15.40;;
75054;SDS011;63636;44.746;10.488;2022-11-15T06:01:58;37.30;;;15.95;;
75054;SDS011;63636;44.746;10.488;2022-11-15T06:04:42;36.15;;;15.98;;
75054;SDS011;63636;44.746;10.488;2022-11-15T06:07:26;35.10;;;14.98;;
75054;SDS011;63636;44.746;10.488;2022-11-15T06:10:10;34.83;;;15.32;;
75054;SDS011;63636;44.746;10.488;2022-11-15T06:12:58;37.92;;;15.55;;
75054;SDS011;63636;44.746;10.488;2022-11-15T06:15:42;36.83;;;16.80;;
75054;SDS011;63636;44.746;10.488;2022-11-15T06:18:26;35.83;;;15.57;;
75054;SDS011;63636;44.746;10.488;2022-11-15T06:21:10;36.10;;;14.88;;
75054;SDS011;63636;44.746;10.488;2022-11-15T06:23:54;35.78;;;15.18;;
75054;SDS011;63636;44.746;10.488;2022-11-15T06:26:38;36.75;;;15.32;;
75054;SDS011;63636;44.746;10.488;2022-11-15T06:29:25;34.25;;;15.02;;
75054;SDS011;63636;44.746;10.488;2022-11-15T06:32:09;34.67;;;15.68;;
75054;SDS011;63636;44.746;10.488;2022-11-15T06:34:54;35.05;;;15.20;;
75054;SDS011;63636;44.746;10.488;2022-11-15T06:37:38;36.15;;;15.63;;
75054;SDS011;63636;44.746;10.488;2022-11-15T06:40:22;35.55;;;16.08;;
75054;SDS011;63636;44.746;10.488;2022-11-15T06:43:06;37.33;;;15.52;;
75054;SDS011;63636;44.746;10.488;2022-11-15T06:45:51;35.35;;;14.95;;
75054;SDS011;63636;44.746;10.488;2022-11-15T06:48:35;37.97;;;15.55;;
75054;SDS011;63636;44.746;10.488;2022-11-15T06:51:22;38.00;;;15.88;;
75054;SDS011;63636;44.746;10.488;2022-11-15T06:54:06;37.75;;;15.30;;
75054;SDS011;63636;44.746;10.488;2022-11-15T06:56:50;41.20;;;16.48;;
75054;SDS011;63636;44.746;10.488;2022-11-15T06:59:34;35.35;;;15.20;;
75054;SDS011;63636;44.746;10.488;2022-11-15T07:02:18;37.22;;;16.05;;
75054;SDS011;63636;44.746;10.488;2022-11-15T07:05:02;36.70;;;14.85;;
75054;SDS011;63636;44.746;10.488;2022-11-15T07:07:54;34.97;;;14.60;;
75054;SDS011;63636;44.746;10.488;2022-11-15T07:10:38;34.97;;;14.18;;
75054;SDS011;63636;44.746;10.488;2022-11-15T07:13:24;36.33;;;13.77;;
75054;SDS011;63636;44.746;10.488;2022-11-15T07:16:08;33.55;;;12.68;;
75054;SDS011;63636;44.746;10.488;2022-11-15T07:18:53;37.13;;;15.20;;
75054;SDS011;63636;44.746;10.488;2022-11-15T07:21:37;33.17;;;13.68;;
75054;SDS011;63636;44.746;10.488;2022-11-15T07:24:21;35.08;;;14.38;;
75054;SDS011;63636;44.746;10.488;2022-11-15T07:27:05;35.45;;;15.05;;
75054;SDS011;63636;44.746;10.488;2022-11-15T07:29:49;35.20;;;15.05;;
75054;SDS011;63636;44.746;10.488;2022-11-15T07:32:32;32.03;;;14.07;;
75054;SDS011;63636;44.746;10.488;2022-11-15T07:35:17;36.85;;;15.15;;
75054;SDS011;63636;44.746;10.488;2022-11-15T07:38:01;36.55;;;14.70;;
75054;SDS011;63636;44.746;10.488;2022-11-15T07:40:55;35.17;;;15.52;;
75054;SDS011;63636;44.746;10.488;2022-11-15T07:43:39;37.58;;;14.32;;
75054;SDS011;63636;44.746;10.488;2022-11-15T07:46:23;34.38;;;13.43;;
75054;SDS011;63636;44.746;10.488;2022-11-15T07:49:07;36.53;;;14.98;;
75054;SDS011;63636;44.746;10.488;2022-11-15T07:51:51;35.78;;;15.18;;
75054;SDS011;63636;44.746;10.488;2022-11-15T07:54:35;34.97;;;15.07;;
75054;SDS011;63636;44.746;10.488;2022-11-15T07:57:19;36.13;;;14.55;;
75054;SDS011;63636;44.746;10.488;2022-11-15T08:00:04;36.70;;;14.65;;
75054;SDS011;63636;44.746;10.488;2022-11-15T08:02:48;38.30;;;14.80;;
75054;SDS011;63636;44.746;10.488;2022-11-15T08:05:33;34.85;;;15.32;;
75054;SDS011;63636;44.746;10.488;2022-11-15T08:08:17;37.28;;;15.05;;
75054;SDS011;63636;44.746;10.488;2022-11-15T08:11:01;38.20;;;15.60;;
75054;SDS011;63636;44.746;10.488;2022-11-15T08:13:45;33.17;;;13.93;;
75054;SDS011;63636;44.746;10.488;2022-11-15T08:16:29;37.78;;;14.93;;
75054;SDS011;63636;44.746;10.488;2022-11-15T08:19:13;34.95;;;14.88;;
75054;SDS011;63636;44.746;10.488;2022-11-15T08:21:57;39.42;;;15.32;;
75054;SDS011;63636;44.746;10.488;2022-11-15T08:24:41;36.53;;;14.90;;
75054;SDS011;63636;44.746;10.488;2022-11-15T08:27:25;35.42;;;14.48;;
75054;SDS011;63636;44.746;10.488;2022-11-15T08:30:10;34.53;;;14.88;;
75054;SDS011;63636;44.746;10.488;2022-11-15T08:32:56;36.15;;;15.65;;
75054;SDS011;63636;44.746;10.488;2022-11-15T08:35:41;40.38;;;15.23;;
75054;SDS011;63636;44.746;10.488;2022-11-15T08:38:26;36.00;;;14.48;;
75054;SDS011;63636;44.746;10.488;2022-11-15T08:41:12;37.83;;;14.88;;
75054;SDS011;63636;44.746;10.488;2022-11-15T08:43:57;42.10;;;15.43;;
75054;SDS011;63636;44.746;10.488;2022-11-15T08:46:41;39.80;;;15.27;;
75054;SDS011;63636;44.746;10.488;2022-11-15T08:49:25;40.53;;;15.48;;
75054;SDS011;63636;44.746;10.488;2022-11-15T08:52:09;39.85;;;16.05;;
75054;SDS011;63636;44.746;10.488;2022-11-15T08:54:52;39.67;;;15.82;;
75054;SDS011;63636;44.746;10.488;2022-11-15T08:57:36;38.08;;;15.70;;
75054;SDS011;63636;44.746;10.488;2022-11-15T09:00:20;38.15;;;16.40;;
75054;SDS011;63636;44.746;10.488;2022-11-15T09:03:05;36.72;;;15.73;;
75054;SDS011;63636;44.746;10.488;2022-11-15T09:05:53;39.88;;;16.52;;
75054;SDS011;63636;44.746;10.488;2022-11-15T09:08:38;41.53;;;16.23;;
75054;SDS011;63636;44.746;10.488;2022-11-15T09:11:22;43.88;;;16.25;;
75054;SDS011;63636;44.746;10.488;2022-11-15T09:14:07;42.47;;;17.02;;
75054;SDS011;63636;44.746;10.488;2022-11-15T09:16:51;39.78;;;16.95;;
75054;SDS011;63636;44.746;10.488;2022-11-15T09:19:35;40.47;;;16.83;;
75054;SDS011;63636;44.746;10.488;2022-11-15T09:22:20;43.00;;;17.83;;
75054;SDS011;63636;44.746;10.488;2022-11-15T09:25:04;42.38;;;16.52;;
75054;SDS011;63636;44.746;10.488;2022-11-15T09:27:49;40.95;;;17.38;;
75054;SDS011;63636;44.746;10.488;2022-11-15T09:30:32;46.13;;;18.38;;
75054;SDS011;63636;44.746;10.488;2022-11-15T09:33:16;43.20;;;17.20;;
75054;SDS011;63636;44.746;10.488;2022-11-15T09:36:01;43.53;;;18.73;;
75054;SDS011;63636;44.746;10.488;2022-11-15T09:38:45;45.80;;;18.42;;
75054;SDS011;63636;44.746;10.488;2022-11-15T09:41:50;42.50;;;17.88;;
75054;SDS011;63636;44.746;10.488;2022-11-15T09:50:10;49.30;;;20.27;;
75054;SDS011;63636;44.746;10.488;2022-11-15T09:52:36;49.15;;;19.85;;
75054;SDS011;63636;44.746;10.488;2022-11-15T09:55:02;50.88;;;20.70;;
75054;SDS011;63636;44.746;10.488;2022-11-15T10:05:22;45.92;;;19.40;;
75054;SDS011;63636;44.746;10.488;2022-11-15T10:12:51;50.55;;;20.10;;
75054;SDS011;63636;44.746;10.488;2022-11-15T10:15:18;51.85;;;21.30;;
75054;SDS011;63636;44.746;10.488;2022-11-15T10:20:26;55.00;;;22.98;;
75054;SDS011;63636;44.746;10.488;2022-11-15T10:22:56;51.90;;;21.52;;
75054;SDS011;63636;44.746;10.488;2022-11-15T10:25:25;52.55;;;21.92;;
75054;SDS011;63636;44.746;10.488;2022-11-15T10:27:55;51.85;;;22.00;;
75054;SDS011;63636;44.746;10.488;2022-11-15T10:30:21;55.13;;;21.88;;
75054;SDS011;63636;44.746;10.488;2022-11-15T10:32:47;54.78;;;22.30;;
75054;SDS011;63636;44.746;10.488;2022-11-15T10:37:49;53.88;;;22.02;;
75054;SDS011;63636;44.746;10.488;2022-11-15T10:40:16;57.30;;;22.98;;
75054;SDS011;63636;44.746;10.488;2022-11-15T10:42:42;53.78;;;22.05;;
75054;SDS011;63636;44.746;10.488;2022-11-15T10:45:22;57.97;;;23.52;;
75054;SDS011;63636;44.746;10.488;2022-11-15T10:47:48;61.30;;;23.50;;
75054;SDS011;63636;44.746;10.488;2022-11-15T10:50:27;59.25;;;23.83;;
75054;SDS011;63636;44.746;10.488;2022-11-15T10:52:53;62.35;;;25.13;;
75054;SDS011;63636;44.746;10.488;2022-11-15T10:55:28;63.97;;;24.63;;
75054;SDS011;63636;44.746;10.488;2022-11-15T10:57:56;60.00;;;23.40;;
75054;SDS011;63636;44.746;10.488;2022-11-15T11:00:27;58.33;;;23.52;;
75054;SDS011;63636;44.746;10.488;2022-11-15T11:03:01;57.75;;;23.80;;
75054;SDS011;63636;44.746;10.488;2022-11-15T11:05:32;59.10;;;24.15;;
75054;SDS011;63636;44.746;10.488;2022-11-15T11:08:05;64.05;;;24.67;;
75054;SDS011;63636;44.746;10.488;2022-11-15T11:10:57;62.72;;;25.13;;
75054;SDS011;63636;44.746;10.488;2022-11-15T11:15:53;57.80;;;24.52;;
75054;SDS011;63636;44.746;10.488;2022-11-15T11:18:44;59.33;;;24.05;;
75054;SDS011;63636;44.746;10.488;2022-11-15T11:21:08;58.95;;;23.25;;
75054;SDS011;63636;44.746;10.488;2022-11-15T11:31:16;60.75;;;25.20;;
75054;SDS011;63636;44.746;10.488;2022-11-15T11:36:21;62.88;;;24.40;;
75054;SDS011;63636;44.746;10.488;2022-11-15T11:38:56;61.65;;;24.67;;
75054;SDS011;63636;44.746;10.488;2022-11-15T11:46:44;67.50;;;26.75;;
75054;SDS011;63636;44.746;10.488;2022-11-15T11:49:15;68.40;;;26.00;;
75054;SDS011;63636;44.746;10.488;2022-11-15T11:52:05;64.25;;;25.80;;
75054;SDS011;63636;44.746;10.488;2022-11-15T11:56:59;62.47;;;25.40;;
75054;SDS011;63636;44.746;10.488;2022-11-15T11:59:35;64.03;;;25.23;;
75054;SDS011;63636;44.746;10.488;2022-11-15T12:02:10;65.50;;;25.17;;
75054;SDS011;63636;44.746;10.488;2022-11-15T12:04:42;66.82;;;26.38;;
75054;SDS011;63636;44.746;10.488;2022-11-15T12:07:43;68.22;;;25.77;;
75054;SDS011;63636;44.746;10.488;2022-11-15T12:15:24;64.07;;;25.80;;
75054;SDS011;63636;44.746;10.488;2022-11-15T12:17:51;68.68;;;27.27;;
75054;SDS011;63636;44.746;10.488;2022-11-15T12:20:18;69.60;;;26.73;;
75054;SDS011;63636;44.746;10.488;2022-11-15T12:22:51;68.20;;;26.23;;
75054;SDS011;63636;44.746;10.488;2022-11-15T12:30:15;70.68;;;26.45;;
75054;SDS011;63636;44.746;10.488;2022-11-15T12:33:28;69.15;;;26.40;;
75054;SDS011;63636;44.746;10.488;2022-11-15T12:35:37;64.60;;;25.20;;
75054;SDS011;63636;44.746;10.488;2022-11-15T12:38:04;71.18;;;26.48;;
75054;SDS011;63636;44.746;10.488;2022-11-15T12:40:37;65.50;;;24.77;;
75054;SDS011;63636;44.746;10.488;2022-11-15T12:43:48;67.07;;;26.13;;
75054;SDS011;63636;44.746;10.488;2022-11-15T12:45:48;62.83;;;24.55;;
75054;SDS011;63636;44.746;10.488;2022-11-15T13:01:52;63.03;;;25.10;;
75054;SDS011;63636;44.746;10.488;2022-11-15T13:06:40;61.53;;;24.10;;
75054;SDS011;63636;44.746;10.488;2022-11-15T13:09:49;61.20;;;24.20;;
75054;SDS011;63636;44.746;10.488;2022-11-15T13:11:51;58.15;;;23.35;;
75054;SDS011;63636;44.746;10.488;2022-11-15T13:17:01;60.78;;;24.27;;
75054;SDS011;63636;44.746;10.488;2022-11-15T13:19:27;63.15;;;24.08;;
75054;SDS011;63636;44.746;10.488;2022-11-15T13:21:53;60.17;;;23.92;;
75054;SDS011;63636;44.746;10.488;2022-11-15T13:24:38;62.22;;;23.70;;
75054;SDS011;63636;44.746;10.488;2022-11-15T13:27:10;57.80;;;24.40;;
75054;SDS011;63636;44.746;10.488;2022-11-15T13:29:42;62.05;;;24.25;;
75054;SDS011;63636;44.746;10.488;2022-11-15T13:32:11;57.55;;;23.17;;
75054;SDS011;63636;44.746;10.488;2022-11-15T13:34:38;58.63;;;23.45;;
75054;SDS011;63636;44.746;10.488;2022-11-15T13:37:51;56.10;;;22.88;;
75054;SDS011;63636;44.746;10.488;2022-11-15T13:42:42;56.63;;;22.90;;
75054;SDS011;63636;44.746;10.488;2022-11-15T13:45:12;53.78;;;21.92;;
75054;SDS011;63636;44.746;10.488;2022-11-15T13:47:38;54.50;;;22.20;;
75054;SDS011;63636;44.746;10.488;2022-11-15T13:50:03;56.63;;;22.33;;
75054;SDS011;63636;44.746;10.488;2022-11-15T13:52:31;59.35;;;23.17;;
75054;SDS011;63636;44.746;10.488;2022-11-15T13:55:03;56.08;;;22.58;;
75054;SDS011;63636;44.746;10.488;2022-11-15T13:57:41;59.47;;;22.90;;
75054;SDS011;63636;44.746;10.488;2022-11-15T14:00:29;59.95;;;24.15;;
75054;SDS011;63636;44.746;10.488;2022-11-15T14:02:55;62.20;;;23.73;;
75054;SDS011;63636;44.746;10.488;2022-11-15T14:05:23;57.30;;;23.45;;
75054;SDS011;63636;44.746;10.488;2022-11-15T14:07:59;54.55;;;24.83;;
75054;SDS011;63636;44.746;10.488;2022-11-15T14:10:30;58.97;;;24.80;;
75054;SDS011;63636;44.746;10.488;2022-11-15T14:12:56;58.85;;;24.25;;
75054;SDS011;63636;44.746;10.488;2022-11-15T14:15:32;56.35;;;23.92;;
75054;SDS011;63636;44.746;10.488;2022-11-15T14:17:58;56.95;;;23.02;;
75054;SDS011;63636;44.746;10.488;2022-11-15T14:20:38;57.13;;;23.08;;
75054;SDS011;63636;44.746;10.488;2022-11-15T14:23:04;57.85;;;23.35;;
75054;SDS011;63636;44.746;10.488;2022-11-15T14:25:31;54.67;;;22.48;;
75054;SDS011;63636;44.746;10.488;2022-11-15T14:28:14;57.17;;;23.02;;
75054;SDS011;63636;44.746;10.488;2022-11-15T14:30:41;53.00;;;22.40;;
75054;SDS011;63636;44.746;10.488;2022-11-15T14:33:40;49.65;;;21.42;;
75054;SDS011;63636;44.746;10.488;2022-11-15T14:36:03;55.70;;;22.92;;
75054;SDS011;63636;44.746;10.488;2022-11-15T14:38:29;52.33;;;21.70;;
75054;SDS011;63636;44.746;10.488;2022-11-15T14:40:54;54.03;;;22.30;;
75054;SDS011;63636;44.746;10.488;2022-11-15T14:43:21;54.28;;;22.65;;
75054;SDS011;63636;44.746;10.488;2022-11-15T14:45:46;52.42;;;22.58;;
75054;SDS011;63636;44.746;10.488;2022-11-15T14:48:12;54.28;;;21.73;;
75054;SDS011;63636;44.746;10.488;2022-11-15T14:50:37;53.22;;;21.63;;
75054;SDS011;63636;44.746;10.488;2022-11-15T14:53:04;55.95;;;22.52;;
75054;SDS011;63636;44.746;10.488;2022-11-15T14:55:31;53.45;;;22.58;;
75054;SDS011;63636;44.746;10.488;2022-11-15T14:58:00;59.45;;;23.55;;
75054;SDS011;63636;44.746;10.488;2022-11-15T15:00:28;54.63;;;21.75;;
75054;SDS011;63636;44.746;10.488;2022-11-15T15:02:54;53.38;;;22.15;;
75054;SDS011;63636;44.746;10.488;2022-11-15T15:07:45;55.55;;;22.80;;
75054;SDS011;63636;44.746;10.488;2022-11-15T15:10:11;52.85;;;22.55;;
75054;SDS011;63636;44.746;10.488;2022-11-15T15:12:37;54.10;;;22.45;;
75054;SDS011;63636;44.746;10.488;2022-11-15T15:15:03;59.13;;;22.15;;
75054;SDS011;63636;44.746;10.488;2022-11-15T15:17:29;53.85;;;22.20;;
75054;SDS011;63636;44.746;10.488;2022-11-15T15:19:54;49.58;;;21.45;;
75054;SDS011;63636;44.746;10.488;2022-11-15T15:22:20;56.60;;;22.45;;
75054;SDS011;63636;44.746;10.488;2022-11-15T15:24:50;54.63;;;21.58;;
75054;SDS011;63636;44.746;10.488;2022-11-15T15:27:16;54.75;;;22.35;;
75054;SDS011;63636;44.746;10.488;2022-11-15T15:29:41;56.30;;;21.77;;
75054;SDS011;63636;44.746;10.488;2022-11-15T15:32:07;54.03;;;21.52;;
75054;SDS011;63636;44.746;10.488;2022-11-15T15:34:33;51.40;;;21.77;;
75054;SDS011;63636;44.746;10.488;2022-11-15T15:39:43;50.45;;;21.23;;
75054;SDS011;63636;44.746;10.488;2022-11-15T15:42:08;55.53;;;22.30;;
75054;SDS011;63636;44.746;10.488;2022-11-15T15:44:34;53.38;;;22.25;;
75054;SDS011;63636;44.746;10.488;2022-11-15T15:47:00;51.30;;;21.45;;
75054;SDS011;63636;44.746;10.488;2022-11-15T15:49:25;55.42;;;22.35;;
75054;SDS011;63636;44.746;10.488;2022-11-15T15:51:51;55.00;;;23.02;;
75054;SDS011;63636;44.746;10.488;2022-11-15T15:54:17;53.75;;;23.13;;
75054;SDS011;63636;44.746;10.488;2022-11-15T15:56:42;58.50;;;23.50;;
75054;SDS011;63636;44.746;10.488;2022-11-15T15:59:09;55.28;;;23.10;;
75054;SDS011;63636;44.746;10.488;2022-11-15T16:01:34;56.67;;;22.65;;
75054;SDS011;63636;44.746;10.488;2022-11-15T16:04:00;55.97;;;22.35;;
75054;SDS011;63636;44.746;10.488;2022-11-15T16:06:36;56.83;;;23.40;;
75054;SDS011;63636;44.746;10.488;2022-11-15T16:09:02;58.80;;;23.52;;
75054;SDS011;63636;44.746;10.488;2022-11-15T16:11:28;54.55;;;22.55;;
75054;SDS011;63636;44.746;10.488;2022-11-15T16:13:54;52.42;;;22.45;;
75054;SDS011;63636;44.746;10.488;2022-11-15T16:16:19;51.70;;;22.58;;
75054;SDS011;63636;44.746;10.488;2022-11-15T16:18:46;55.22;;;23.55;;
75054;SDS011;63636;44.746;10.488;2022-11-15T16:21:11;51.38;;;21.88;;
75054;SDS011;63636;44.746;10.488;2022-11-15T16:23:37;57.65;;;23.10;;
75054;SDS011;63636;44.746;10.488;2022-11-15T16:26:06;55.92;;;22.52;;
75054;SDS011;63636;44.746;10.488;2022-11-15T16:28:36;50.70;;;22.48;;
75054;SDS011;63636;44.746;10.488;2022-11-15T16:31:08;54.20;;;23.17;;
75054;SDS011;63636;44.746;10.488;2022-11-15T16:36:00;52.53;;;22.10;;
75054;SDS011;63636;44.746;10.488;2022-11-15T16:38:26;54.78;;;23.38;;
75054;SDS011;63636;44.746;10.488;2022-11-15T16:40:51;55.20;;;22.33;;
75054;SDS011;63636;44.746;10.488;2022-11-15T16:43:17;58.00;;;23.70;;
75054;SDS011;63636;44.746;10.488;2022-11-15T16:45:42;58.45;;;23.13;;
75054;SDS011;63636;44.746;10.488;2022-11-15T16:48:15;56.50;;;25.10;;
75054;SDS011;63636;44.746;10.488;2022-11-15T16:50:44;56.80;;;24.50;;
75054;SDS011;63636;44.746;10.488;2022-11-15T16:53:10;57.67;;;23.67;;
75054;SDS011;63636;44.746;10.488;2022-11-15T16:55:36;58.50;;;23.73;;
75054;SDS011;63636;44.746;10.488;2022-11-15T16:58:01;50.13;;;22.45;;
75054;SDS011;63636;44.746;10.488;2022-11-15T17:00:28;51.95;;;22.45;;
75054;SDS011;63636;44.746;10.488;2022-11-15T17:02:53;57.80;;;23.52;;
75054;SDS011;63636;44.746;10.488;2022-11-15T17:05:21;59.25;;;23.20;;
75054;SDS011;63636;44.746;10.488;2022-11-15T17:07:48;58.05;;;23.58;;
75054;SDS011;63636;44.746;10.488;2022-11-15T17:10:19;62.63;;;24.30;;
75054;SDS011;63636;44.746;10.488;2022-11-15T17:12:45;54.78;;;23.00;;